Time;durP1;ratioP1;P1;durP2;ratioP2;P2;SDS_P1;SDS_P2;PMS_P1;PMS_P2;Temp;Humidity;BMP_temperature;BMP_pressure;BME280_temperature;BME280_humidity;BME280_pressure;Samples;Min_cycle;Max_cycle;Signal;HPM_P1;HPM_P2
2023/05/16 00:02:15;;;;;;;3.05;1.80;;;;;;;13.85;100.00;100333.16;5029901;28;20060;-75
2023/05/16 00:04:41;;;;;;;4.35;2.65;;;;;;;12.99;100.00;100213.06;5031745;28;20036;-75
2023/05/16 00:07:07;;;;;;;4.10;3.05;;;;;;;13.83;100.00;100334.94;5028040;28;20556;-76
2023/05/16 00:09:32;;;;;;;3.85;2.30;;;;;;;13.10;100.00;100213.78;5038201;28;20076;-76
2023/05/16 00:11:58;;;;;;;3.92;2.20;;;;;;;13.97;100.00;100343.50;5035833;28;20080;-75
2023/05/16 00:14:25;;;;;;;3.25;2.25;;;;;;;13.78;100.00;100337.63;5036659;28;20068;-75
2023/05/16 00:16:52;;;;;;;4.57;2.70;;;;;;;13.02;100.00;100261.31;5036188;28;20037;-75
2023/05/16 00:19:17;;;;;;;3.97;2.35;;;;;;;13.49;100.00;100330.16;5024999;28;20037;-76
2023/05/16 00:21:43;;;;;;;4.35;2.30;;;;;;;13.11;100.00;100231.38;5026038;28;20046;-76
2023/05/16 00:24:09;;;;;;;6.20;3.28;;;;;;;13.88;100.00;100356.84;5028314;28;20497;-75
2023/05/16 00:26:34;;;;;;;5.00;2.13;;;;;;;12.94;100.00;100228.06;5036030;28;20801;-73
2023/05/16 00:29:01;;;;;;;3.28;2.15;;;;;;;13.42;100.00;100274.00;5034706;28;20029;-73
2023/05/16 00:31:26;;;;;;;7.30;2.80;;;;;;;13.72;100.00;100314.88;5026067;28;20116;-74
2023/05/16 00:33:53;;;;;;;3.40;2.00;;;;;;;13.46;100.00;100269.53;5036151;28;20136;-74
2023/05/16 00:36:19;;;;;;;4.75;2.85;;;;;;;13.35;100.00;100237.22;5033988;28;20496;-73
2023/05/16 00:38:45;;;;;;;8.55;2.65;;;;;;;13.58;100.00;100261.47;5034761;28;20044;-74
2023/05/16 00:41:10;;;;;;;4.43;2.60;;;;;;;13.85;100.00;100291.81;5039753;28;20033;-76
2023/05/16 00:43:38;;;;;;;5.00;2.40;;;;;;;13.54;100.00;100282.63;5031396;28;20040;-74
2023/05/16 00:46:04;;;;;;;6.43;2.60;;;;;;;12.93;100.00;100247.41;5031181;28;20041;-75
2023/05/16 00:48:29;;;;;;;4.45;2.60;;;;;;;12.76;100.00;100206.34;5035330;28;20095;-74
2023/05/16 00:50:56;;;;;;;4.07;2.78;;;;;;;13.16;100.00;100254.97;5032892;28;20814;-75
2023/05/16 00:53:23;;;;;;;3.80;2.40;;;;;;;12.98;100.00;100237.66;5026478;28;20122;-81
2023/05/16 00:55:49;;;;;;;5.80;3.38;;;;;;;13.38;100.00;100313.59;5027163;28;20033;-75
2023/05/16 00:58:15;;;;;;;6.90;2.55;;;;;;;13.22;100.00;100342.72;5041326;28;20060;-76
2023/05/16 01:00:41;;;;;;;3.38;2.38;;;;;;;12.58;100.00;100219.72;5037093;28;20449;-74
2023/05/16 01:03:06;;;;;;;6.63;3.15;;;;;;;13.06;100.00;100326.25;5039631;28;20080;-74
2023/05/16 01:05:32;;;;;;;4.65;3.17;;;;;;;12.91;100.00;100205.28;5044542;28;20102;-73
2023/05/16 01:07:58;;;;;;;4.25;3.15;;;;;;;13.51;100.00;100259.81;5039195;28;20060;-74
2023/05/16 01:10:27;;;;;;;3.83;2.13;;;;;;;13.46;100.00;100262.53;5040337;28;20064;-74
2023/05/16 01:13:16;;;;;;;5.03;2.80;;;;;;;13.24;100.00;100248.72;5034107;28;20111;-74
2023/05/16 01:16:04;;;;;;;4.13;2.60;;;;;;;12.89;100.00;100171.03;5038672;28;20094;-74
2023/05/16 01:19:01;;;;;;;3.72;2.63;;;;;;;12.98;100.00;100203.44;5033156;28;20090;-73
2023/05/16 01:22:01;;;;;;;4.88;2.22;;;;;;;13.46;100.00;100316.97;5039625;28;20041;-78
2023/05/16 01:24:45;;;;;;;5.20;2.42;;;;;;;13.13;100.00;100268.19;5034828;28;20191;-76
2023/05/16 01:27:10;;;;;;;;;;;;;;;13.53;100.00;100371.38;5036736;28;20821;-74
2023/05/16 01:29:37;;;;;;;3.92;2.42;;;;;;;13.38;100.00;100367.16;5035506;28;19921;-75
2023/05/16 01:32:03;;;;;;;5.40;2.67;;;;;;;13.21;100.00;100374.38;5030943;28;20044;-74
2023/05/16 01:34:28;;;;;;;4.85;3.10;;;;;;;13.08;100.00;100348.16;5038201;28;20026;-74
2023/05/16 01:37:17;;;;;;;5.07;3.03;;;;;;;13.28;100.00;100340.06;5032547;28;20045;-75
2023/05/16 01:39:46;;;;;;;5.60;4.65;;;;;;;12.92;100.00;100267.56;5037127;28;20072;-76
2023/05/16 01:42:16;;;;;;;4.85;2.63;;;;;;;13.47;100.00;100359.16;5038249;28;20065;-81
2023/05/16 01:45:02;;;;;;;5.47;2.83;;;;;;;13.32;100.00;100342.66;5029415;28;20602;-78
2023/05/16 01:47:30;;;;;;;4.18;2.53;;;;;;;13.56;100.00;100336.22;5030319;28;20128;-76
2023/05/16 01:50:16;;;;;;;4.15;2.58;;;;;;;13.50;100.00;100331.88;5033324;28;20037;-75
2023/05/16 01:52:57;;;;;;;3.83;2.45;;;;;;;12.88;100.00;100227.25;5036318;28;20037;-75
2023/05/16 01:55:35;;;;;;;4.03;3.15;;;;;;;13.12;100.00;100256.81;5029213;28;20087;-74
2023/05/16 01:58:03;;;;;;;4.35;2.65;;;;;;;13.33;100.00;100302.25;5029133;28;20071;-74
2023/05/16 02:00:30;;;;;;;4.45;2.65;;;;;;;12.57;100.00;100147.78;5037381;28;20064;-74
2023/05/16 02:02:56;;;;;;;4.03;2.78;;;;;;;13.09;100.00;100260.34;5050903;28;20069;-74
2023/05/16 02:05:21;;;;;;;4.65;2.90;;;;;;;13.04;100.00;100317.50;5042098;28;20057;-74
2023/05/16 02:07:47;;;;;;;8.63;4.25;;;;;;;12.91;100.00;100336.09;5036688;28;20795;-72
2023/05/16 02:10:13;;;;;;;4.70;3.42;;;;;;;12.94;100.00;100321.09;5037210;28;20280;-81
2023/05/16 02:12:38;;;;;;;6.10;3.63;;;;;;;12.99;100.00;100273.63;5040275;28;20057;-76
2023/05/16 02:15:04;;;;;;;4.55;2.78;;;;;;;12.92;100.00;100270.19;5037473;28;20042;-73
2023/05/16 02:17:30;;;;;;;6.40;3.05;;;;;;;13.06;100.00;100284.09;5020458;28;20517;-77
2023/05/16 02:19:55;;;;;;;4.13;3.20;;;;;;;12.66;100.00;100218.72;5008529;28;20037;-79
2023/05/16 02:22:21;;;;;;;6.53;3.17;;;;;;;13.22;100.00;100334.81;5017960;28;20116;-74
2023/05/16 02:24:46;;;;;;;5.88;3.40;;;;;;;12.94;100.00;100322.88;5008696;28;20072;-75
2023/05/16 02:27:12;;;;;;;4.47;2.90;;;;;;;11.57;100.00;100104.09;5016259;28;20069;-76
2023/05/16 02:29:37;;;;;;;6.55;3.63;;;;;;;12.86;100.00;100275.56;5012506;28;20404;-77
2023/05/16 02:32:03;;;;;;;5.18;3.13;;;;;;;12.32;100.00;100147.19;5017489;28;20041;-77
2023/05/16 02:34:29;;;;;;;4.88;3.22;;;;;;;12.25;100.00;100156.91;5015093;28;20026;-75
2023/05/16 02:36:54;;;;;;;6.22;3.45;;;;;;;12.60;100.00;100255.66;5012398;28;20505;-74
2023/05/16 02:39:20;;;;;;;6.20;2.70;;;;;;;12.21;100.00;100183.28;5013200;28;20037;-75
2023/05/16 02:41:45;;;;;;;7.20;3.33;;;;;;;12.98;100.00;100274.53;5008234;28;20042;-83
2023/05/16 02:44:11;;;;;;;5.75;3.03;;;;;;;12.80;100.00;100265.94;5016010;28;20037;-78
2023/05/16 02:46:36;;;;;;;5.15;3.10;;;;;;;12.17;100.00;100174.53;5012626;28;20036;-74
2023/05/16 02:49:02;;;;;;;6.38;3.70;;;;;;;12.08;100.00;100140.47;5006964;28;20053;-75
2023/05/16 02:51:28;;;;;;;5.50;3.63;;;;;;;12.31;100.00;100149.84;5012434;28;20038;-79
2023/05/16 02:53:58;;;;;;;5.35;3.83;;;;;;;12.91;100.00;100238.63;5015991;28;20091;-75
2023/05/16 02:56:25;;;;;;;9.25;3.65;;;;;;;11.95;100.00;100107.28;5007120;28;20129;-76
2023/05/16 02:58:52;;;;;;;7.22;3.50;;;;;;;11.81;100.00;100083.72;5011887;28;20037;-74
2023/05/16 03:01:17;;;;;;;6.97;3.65;;;;;;;12.91;100.00;100241.28;5015563;28;20092;-74
2023/05/16 03:03:43;;;;;;;7.20;3.50;;;;;;;12.41;100.00;100154.13;5021179;28;20053;-77
2023/05/16 03:06:08;;;;;;;9.15;3.75;;;;;;;12.93;100.00;100252.66;5011238;28;20056;-75
2023/05/16 03:08:34;;;;;;;6.28;3.53;;;;;;;11.99;100.00;100138.78;5014746;28;20042;-73
2023/05/16 03:11:00;;;;;;;5.88;3.17;;;;;;;11.76;100.00;100082.91;5006886;28;20045;-74
2023/05/16 03:13:27;;;;;;;5.43;3.72;;;;;;;12.49;100.00;100168.06;5018356;28;20099;-77
2023/05/16 03:15:52;;;;;;;4.60;3.42;;;;;;;12.13;100.00;100078.16;5017606;28;20478;-74
2023/05/16 03:18:18;;;;;;;7.65;3.80;;;;;;;13.04;100.00;100227.03;5014476;28;20056;-77
2023/05/16 03:20:43;;;;;;;9.90;3.10;;;;;;;13.00;100.00;100228.84;5004245;28;20050;-76
2023/05/16 03:23:09;;;;;;;8.23;4.22;;;;;;;12.96;100.00;100231.53;5015458;28;20096;-74
2023/05/16 03:25:37;;;;;;;4.43;3.28;;;;;;;12.99;100.00;100242.91;5011103;28;20036;-74
2023/05/16 03:28:05;;;;;;;7.78;3.90;;;;;;;12.79;100.00;100232.63;5012796;28;20851;-74
2023/05/16 03:30:31;;;;;;;5.90;3.13;;;;;;;12.15;100.00;100110.56;5021153;28;20569;-75
2023/05/16 03:32:56;;;;;;;6.35;3.58;;;;;;;12.81;100.00;100246.66;5013319;28;20049;-75
2023/05/16 03:35:23;;;;;;;6.07;5.07;;;;;;;12.30;100.00;100108.66;5009443;28;20065;-74
2023/05/16 03:37:48;;;;;;;5.95;4.10;;;;;;;12.58;100.00;100175.84;5011454;28;20141;-74
2023/05/16 03:40:14;;;;;;;6.15;3.67;;;;;;;12.92;100.00;100249.13;5008416;28;20052;-75
2023/05/16 03:42:40;;;;;;;6.57;4.22;;;;;;;12.60;100.00;100162.66;5015120;28;20041;-74
2023/05/16 03:45:06;;;;;;;5.30;3.65;;;;;;;13.29;100.00;100269.78;5005757;28;20220;-76
2023/05/16 03:47:32;;;;;;;8.30;4.82;;;;;;;13.12;100.00;100253.31;5007564;28;20049;-76
2023/05/16 03:49:57;;;;;;;5.32;3.60;;;;;;;12.64;100.00;100235.41;5006514;28;20037;-75
2023/05/16 03:52:24;;;;;;;6.07;4.07;;;;;;;12.77;100.00;100258.09;5010954;28;20048;-76
2023/05/16 03:54:50;;;;;;;5.22;3.33;;;;;;;12.75;100.00;100269.53;5017267;28;20478;-74
2023/05/16 03:57:15;;;;;;;4.70;3.45;;;;;;;11.93;100.00;100115.19;5006930;28;20049;-75
2023/05/16 03:59:41;;;;;;;5.32;3.35;;;;;;;11.98;100.00;100110.72;5015182;28;20041;-79
2023/05/16 04:02:07;;;;;;;7.07;3.97;;;;;;;12.64;100.00;100195.94;5016108;28;20374;-76
2023/05/16 04:04:32;;;;;;;7.75;4.15;;;;;;;12.66;100.00;100204.69;5001979;28;20071;-77
2023/05/16 04:06:57;;;;;;;10.00;4.28;;;;;;;12.68;100.00;100202.91;5028468;28;20042;-76
2023/05/16 04:09:23;;;;;;;5.78;4.05;;;;;;;12.68;100.00;100192.38;5017178;28;20057;-79
2023/05/16 04:11:48;;;;;;;7.72;4.53;;;;;;;12.78;100.00;100177.34;5020707;28;20034;-76
2023/05/16 04:14:14;;;;;;;6.13;3.97;;;;;;;12.02;100.00;100037.97;5022318;28;20513;-76
2023/05/16 04:16:40;;;;;;;6.30;4.75;;;;;;;12.25;100.00;100067.47;5019942;28;20030;-79
2023/05/16 04:19:06;;;;;;;10.65;4.95;;;;;;;12.65;100.00;100138.00;5008673;28;20528;-75
2023/05/16 04:21:32;;;;;;;5.18;3.75;;;;;;;12.92;100.00;100174.53;5017991;28;20034;-74
2023/05/16 04:23:57;;;;;;;6.07;3.33;;;;;;;11.05;100.00;99860.38;5016002;28;20041;-75
2023/05/16 04:26:23;;;;;;;6.95;4.22;;;;;;;12.70;100.00;100145.84;5009129;28;20485;-75
2023/05/16 04:28:49;;;;;;;6.53;4.30;;;;;;;12.10;100.00;100043.13;5022674;28;20030;-75
2023/05/16 04:31:15;;;;;;;8.43;4.00;;;;;;;12.25;100.00;100048.19;5010817;28;20678;-74
2023/05/16 04:33:41;;;;;;;6.63;4.10;;;;;;;12.80;100.00;100131.66;5017556;28;20030;-75
2023/05/16 04:36:07;;;;;;;5.55;3.92;;;;;;;12.61;100.00;100119.66;5009625;28;20077;-75
2023/05/16 04:38:32;;;;;;;8.10;4.10;;;;;;;12.85;100.00;100123.69;5017268;28;20121;-75
2023/05/16 04:40:58;;;;;;;8.77;4.20;;;;;;;13.64;100.00;100236.78;5025103;28;20029;-75
2023/05/16 04:43:23;;;;;;;6.63;3.80;;;;;;;13.03;100.00;100109.41;5010713;28;20331;-76
2023/05/16 04:45:49;;;;;;;6.72;4.22;;;;;;;13.60;100.00;100208.69;5013995;28;20462;-75
2023/05/16 04:48:15;;;;;;;7.40;4.88;;;;;;;13.18;100.00;100103.91;5014996;28;20064;-74
2023/05/16 04:50:40;;;;;;;9.48;4.30;;;;;;;13.43;100.00;100143.06;5011210;28;20049;-75
2023/05/16 04:53:06;;;;;;;7.32;3.95;;;;;;;13.87;100.00;100212.66;5012522;28;20037;-74
2023/05/16 04:55:31;;;;;;;16.90;3.67;;;;;;;13.68;100.00;100212.09;5009134;28;20041;-75
2023/05/16 04:57:57;;;;;;;4.60;3.22;;;;;;;14.05;100.00;100249.28;5016915;28;20148;-78
2023/05/16 05:00:22;;;;;;;7.97;4.90;;;;;;;13.39;100.00;100142.28;5012623;28;20046;-75
2023/05/16 05:02:48;;;;;;;6.57;4.38;;;;;;;13.03;100.00;100076.03;5014058;28;20886;-83
2023/05/16 05:05:13;;;;;;;5.85;3.80;;;;;;;13.77;100.00;100175.03;5017488;28;20434;-75
2023/05/16 05:07:39;;;;;;;4.90;3.60;;;;;;;14.02;100.00;100172.81;5020420;28;20030;-75
2023/05/16 05:10:06;;;;;;;5.72;3.90;;;;;;;14.33;100.00;100186.34;5022804;28;20409;-74
2023/05/16 05:12:33;;;;;;;5.43;3.50;;;;;;;13.63;100.00;100074.22;5012670;28;20065;-75
2023/05/16 05:14:59;;;;;;;6.45;3.30;;;;;;;14.18;100.00;100173.41;5029451;28;20092;-75
2023/05/16 05:17:24;;;;;;;5.32;4.05;;;;;;;14.02;100.00;100178.09;5042529;28;20393;-75
2023/05/16 05:19:50;;;;;;;5.78;3.30;;;;;;;14.27;100.00;100188.22;5031019;28;20033;-77
2023/05/16 05:22:15;;;;;;;7.57;4.05;;;;;;;14.45;100.00;100168.53;5038155;28;20037;-75
2023/05/16 05:24:41;;;;;;;6.43;3.78;;;;;;;13.82;100.00;100065.06;5032024;28;20034;-75
2023/05/16 05:27:06;;;;;;;5.70;2.90;;;;;;;14.70;100.00;100197.97;5032993;28;20096;-75
2023/05/16 05:29:32;;;;;;;5.95;3.47;;;;;;;14.75;100.00;100185.56;5035890;28;20038;-76
2023/05/16 05:31:57;;;;;;;5.63;3.65;;;;;;;14.36;100.00;100085.09;5025134;28;20455;-77
2023/05/16 05:34:23;;;;;;;5.45;3.60;;;;;;;15.63;100.00;100219.66;5019475;28;20555;-77
2023/05/16 05:36:48;;;;;;;3.63;2.55;;;;;;;15.62;100.00;100198.56;5018785;28;20073;-75
2023/05/16 05:39:14;;;;;;;6.47;3.05;;;;;;;15.06;100.00;100116.19;5021597;28;20103;-76
2023/05/16 05:41:39;;;;;;;8.48;4.07;;;;;;;15.53;100.00;100217.31;5024434;28;20041;-76
2023/05/16 05:44:05;;;;;;;4.55;2.83;;;;;;;15.48;100.00;100249.13;5028718;28;20052;-76
2023/05/16 05:46:32;;;;;;;5.97;2.75;;;;;;;15.74;100.00;100226.53;5030711;28;20409;-71
2023/05/16 05:48:58;;;;;;;5.72;4.18;;;;;;;15.56;100.00;100239.25;5022663;28;20502;-73
2023/05/16 05:51:24;;;;;;;7.68;4.25;;;;;;;15.13;100.00;100162.72;5044850;28;20050;-76
2023/05/16 05:53:51;;;;;;;7.13;3.05;;;;;;;15.92;100.00;100270.19;5029745;28;20526;-74
2023/05/16 05:56:17;;;;;;;3.63;2.55;;;;;;;15.94;100.00;100276.31;5022595;28;20061;-72
2023/05/16 05:58:43;;;;;;;5.05;2.10;;;;;;;15.59;100.00;100268.28;5029443;28;20588;-73
2023/05/16 06:01:10;;;;;;;4.32;2.58;;;;;;;14.86;100.00;100172.09;5033664;28;20041;-73
2023/05/16 06:03:35;;;;;;;4.72;2.85;;;;;;;15.89;100.00;100275.56;5031967;28;20037;-72
2023/05/16 06:06:01;;;;;;;5.93;3.55;;;;;;;15.43;100.00;100184.03;5038413;28;20049;-73
2023/05/16 06:08:26;;;;;;;26.42;2.90;;;;;;;15.80;100.00;100282.81;5040263;28;20048;-73
2023/05/16 06:10:53;;;;;;;4.45;3.22;;;;;;;15.21;100.00;100176.59;5036870;28;20029;-72
2023/05/16 06:13:18;;;;;;;4.10;2.25;;;;;;;15.52;100.00;100279.00;5030944;28;20524;-73
2023/05/16 06:15:43;;;;;;;4.40;2.75;;;;;;;15.29;100.00;100156.16;5038172;28;20052;-73
2023/05/16 06:18:09;;;;;;;4.53;2.40;;;;;;;15.95;100.00;100256.91;5025747;28;20054;-71
2023/05/16 06:20:34;;;;;;;4.35;2.40;;;;;;;15.89;100.00;100278.19;5024516;28;20041;-72
2023/05/16 06:23:00;;;;;;;4.10;2.58;;;;;;;15.76;100.00;100212.34;5031460;28;20029;-71
2023/05/16 06:25:25;;;;;;;4.20;2.35;;;;;;;15.58;100.00;100157.22;5027415;28;20505;-73
2023/05/16 06:27:51;;;;;;;4.95;2.80;;;;;;;16.36;100.00;100289.38;5037337;28;20068;-73
2023/05/16 06:30:16;;;;;;;4.53;2.40;;;;;;;15.08;100.00;100088.81;5034804;28;20076;-72
2023/05/16 06:32:42;;;;;;;6.45;3.13;;;;;;;15.73;100.00;100196.56;5037880;28;20068;-71
2023/05/16 06:35:08;;;;;;;3.83;2.13;;;;;;;15.87;100.00;100269.44;5032919;28;20515;-72
2023/05/16 06:37:34;;;;;;;9.55;3.42;;;;;;;15.90;100.00;100212.03;5027509;28;20029;-73
2023/05/16 06:39:59;;;;;;;5.13;2.65;;;;;;;15.68;100.00;100168.44;5033741;28;20045;-73
2023/05/16 06:42:25;;;;;;;5.63;2.78;;;;;;;16.59;100.00;100283.47;5027122;28;20049;-74
2023/05/16 06:44:50;;;;;;;6.43;3.88;;;;;;;16.82;100.00;100273.16;5030011;28;20780;-73
2023/05/16 06:47:16;;;;;;;8.50;3.15;;;;;;;16.81;100.00;100259.94;5034936;28;20037;-73
2023/05/16 06:49:41;;;;;;;7.53;2.83;;;;;;;16.97;100.00;100281.56;5027833;28;20102;-71
2023/05/16 06:52:07;;;;;;;5.63;3.28;;;;;;;16.30;100.00;100176.56;5029279;28;20427;-71
2023/05/16 06:54:32;;;;;;;7.18;3.55;;;;;;;17.25;100.00;100294.91;5036728;28;20033;-71
2023/05/16 06:56:57;;;;;;;6.05;3.63;;;;;;;17.44;100.00;100285.50;5043900;28;20058;-71
2023/05/16 06:59:23;;;;;;;4.95;2.60;;;;;;;17.66;100.00;100300.75;5032425;28;20037;-71
2023/05/16 07:01:48;;;;;;;3.80;2.08;;;;;;;17.21;100.00;100200.47;5030591;28;20186;-71
2023/05/16 07:04:14;;;;;;;4.63;2.45;;;;;;;17.95;100.00;100280.41;5040682;28;20037;-71
2023/05/16 07:06:40;;;;;;;6.63;4.25;;;;;;;17.34;100.00;100196.50;5027509;28;20064;-72
2023/05/16 07:09:06;;;;;;;5.75;3.10;;;;;;;17.06;100.00;100177.94;5026591;28;20053;-71
2023/05/16 07:11:31;;;;;;;3.08;2.13;;;;;;;17.62;100.00;100216.84;5023510;28;20523;-72
2023/05/16 07:13:57;;;;;;;4.55;2.97;;;;;;;17.60;100.00;100227.50;5029480;28;20064;-72
2023/05/16 07:16:23;;;;;;;3.95;2.47;;;;;;;18.47;100.00;100292.81;5035512;28;20068;-71
2023/05/16 07:18:48;;;;;;;5.32;3.80;;;;;;;18.57;100.00;100301.34;5033450;28;20041;-74
2023/05/16 07:21:14;;;;;;;3.35;2.17;;;;;;;18.87;100.00;100310.06;5029261;28;20033;-73
2023/05/16 07:23:39;;;;;;;4.43;2.58;;;;;;;19.02;100.00;100281.16;5029066;28;20048;-74
2023/05/16 07:26:05;;;;;;;4.60;2.65;;;;;;;18.90;100.00;100216.03;5031106;28;20040;-73
2023/05/16 07:28:30;;;;;;;2.75;1.80;;;;;;;19.02;100.00;100207.56;5026777;28;20385;-72
2023/05/16 07:30:57;;;;;;;3.65;2.00;;;;;;;19.23;100.00;100237.78;5026462;28;20037;-73
2023/05/16 07:33:23;;;;;;;5.80;2.80;;;;;;;19.49;100.00;100275.84;5029417;28;20111;-71
2023/05/16 07:35:49;;;;;;;4.97;2.95;;;;;;;19.65;100.00;100220.19;5036060;28;20061;-73
2023/05/16 07:38:14;;;;;;;2.97;2.05;;;;;;;19.27;100.00;100188.88;5041350;28;20065;-73
2023/05/16 07:40:40;;;;;;;8.75;2.25;;;;;;;19.78;100.00;100322.63;5030451;28;20037;-71
2023/05/16 07:43:05;;;;;;;4.45;1.95;;;;;;;19.81;100.00;100318.06;5031399;28;20531;-75
2023/05/16 07:45:31;;;;;;;5.15;2.33;;;;;;;19.37;100.00;100208.00;5029543;28;20134;-73
2023/05/16 07:47:57;;;;;;;4.03;2.22;;;;;;;19.11;100.00;100127.44;5039096;28;20159;-74
2023/05/16 07:50:22;;;;;;;4.75;2.10;;;;;;;19.51;100.00;100202.97;5033954;28;20044;-76
2023/05/16 07:52:48;;;;;;;4.03;2.25;;;;;;;20.45;100.00;100287.00;5032468;28;20033;-75
2023/05/16 07:55:13;;;;;;;5.45;2.30;;;;;;;20.47;100.00;100310.94;5034584;28;20041;-77
2023/05/16 07:57:39;;;;;;;6.32;2.38;;;;;;;20.37;100.00;100318.44;5036698;28;20041;-75
2023/05/16 08:00:05;;;;;;;6.40;2.72;;;;;;;19.56;100.00;100150.41;5025322;28;20045;-72
2023/05/16 08:02:31;;;;;;;19.95;4.40;;;;;;;20.38;100.00;100178.94;5026481;28;20156;-76
2023/05/16 08:04:57;;;;;;;6.38;5.28;;;;;;;20.23;99.86;100266.63;5026715;28;20834;-74
2023/05/16 08:07:23;;;;;;;14.55;2.67;;;;;;;19.73;100.00;100194.16;5028871;28;20059;-75
2023/05/16 08:09:48;;;;;;;4.43;2.72;;;;;;;20.64;100.00;100192.00;5027846;28;20554;-76
2023/05/16 08:12:14;;;;;;;3.65;1.30;;;;;;;21.17;96.99;100200.28;5019363;28;20045;-75
2023/05/16 08:14:39;;;;;;;4.05;2.17;;;;;;;21.38;93.37;100284.66;5041503;28;20199;-74
2023/05/16 08:17:05;;;;;;;3.50;2.00;;;;;;;20.98;91.00;100200.28;5028107;28;20097;-73
2023/05/16 08:19:31;;;;;;;3.95;2.45;;;;;;;20.97;88.62;100212.72;5024856;28;20128;-75
2023/05/16 08:21:57;;;;;;;11.48;2.05;;;;;;;21.48;96.93;100202.34;5041984;28;20136;-73
2023/05/16 08:24:23;;;;;;;2.80;1.88;;;;;;;22.46;91.94;100311.53;5019093;28;20057;-74
2023/05/16 08:26:49;;;;;;;2.55;1.45;;;;;;;21.93;87.99;100243.75;5028111;28;20092;-74
2023/05/16 08:29:15;;;;;;;2.80;1.85;;;;;;;21.48;87.50;100197.00;5025416;28;20079;-71
2023/05/16 08:31:40;;;;;;;3.40;2.20;;;;;;;21.26;88.22;100218.50;5018273;28;20386;-72
2023/05/16 08:34:06;;;;;;;2.83;1.23;;;;;;;21.96;94.00;100293.50;5019944;28;20461;-72
2023/05/16 08:36:35;;;;;;;3.78;1.60;;;;;;;21.84;88.08;100308.31;5028006;28;20037;-72
2023/05/16 08:39:00;;;;;;;4.80;2.20;;;;;;;21.59;91.08;100234.75;5025227;28;20046;-72
2023/05/16 08:41:26;;;;;;;3.28;1.48;;;;;;;21.70;88.38;100309.88;5018404;28;20133;-72
2023/05/16 08:43:51;;;;;;;2.63;1.42;;;;;;;21.11;90.35;100212.06;5027454;28;20029;-73
2023/05/16 08:46:22;;;;;;;4.05;1.85;;;;;;;21.42;97.65;100298.75;5028208;28;20147;-72
2023/05/16 08:48:52;;;;;;;3.58;1.67;;;;;;;21.63;88.58;100315.56;5014954;28;20106;-72
2023/05/16 08:51:19;;;;;;;7.28;1.95;;;;;;;21.55;90.17;100318.59;5024153;28;20057;-74
2023/05/16 08:54:00;;;;;;;2.22;1.23;;;;;;;20.56;91.45;100201.28;5026306;28;20125;-72
2023/05/16 08:56:26;;;;;;;4.50;1.58;;;;;;;21.57;86.84;100327.41;5027577;28;20041;-73
2023/05/16 08:58:54;;;;;;;2.60;1.50;;;;;;;21.49;85.33;100317.09;5027017;28;20116;-72
2023/05/16 09:01:20;;;;;;;2.35;1.27;;;;;;;21.20;85.43;100224.13;5038834;28;20045;-72
2023/05/16 09:03:47;;;;;;;5.05;2.33;;;;;;;21.17;82.35;100265.16;5023891;28;20136;-72
2023/05/16 09:06:12;;;;;;;2.55;1.02;;;;;;;21.48;82.52;100223.72;5027338;28;20041;-71
2023/05/16 09:08:38;;;;;;;4.15;2.15;;;;;;;22.55;86.02;100218.31;5024186;28;20103;-72
2023/05/16 09:11:03;;;;;;;2.35;1.58;;;;;;;23.28;86.55;100316.19;5027656;28;20026;-73
2023/05/16 09:13:29;;;;;;;3.47;1.98;;;;;;;23.36;81.96;100312.13;5027338;28;20063;-72
2023/05/16 09:16:07;;;;;;;1.98;1.23;;;;;;;22.47;76.28;100211.63;5021739;28;20041;-73
2023/05/16 09:18:34;;;;;;;3.60;2.03;;;;;;;23.48;82.99;100315.06;5005797;28;20045;-71
2023/05/16 09:20:59;;;;;;;1.95;1.30;;;;;;;23.40;79.71;100323.53;5008452;28;20084;-73
2023/05/16 09:23:25;;;;;;;1.83;1.20;;;;;;;22.70;81.01;100312.94;5006083;28;20474;-74
2023/05/16 09:25:52;;;;;;;2.25;1.52;;;;;;;21.61;78.55;100214.19;5002499;28;20633;-71
2023/05/16 09:28:17;;;;;;;2.97;1.45;;;;;;;22.21;81.52;100242.41;5004125;28;20049;-72
2023/05/16 09:30:45;;;;;;;3.67;1.55;;;;;;;22.76;72.64;100309.09;4999817;28;20046;-72
2023/05/16 09:33:11;;;;;;;3.28;2.15;;;;;;;23.11;70.68;100287.66;5004933;28;20053;-72
2023/05/16 09:35:36;;;;;;;4.00;1.60;;;;;;;24.22;68.96;100304.59;5002765;28;20046;-71
2023/05/16 09:38:02;;;;;;;2.63;1.23;;;;;;;23.90;68.09;100231.41;5001709;28;20038;-71
2023/05/16 09:40:27;;;;;;;2.53;1.38;;;;;;;23.54;65.67;100219.19;5007016;28;20155;-72
2023/05/16 09:43:01;;;;;;;4.57;2.08;;;;;;;23.53;65.49;100287.09;5005005;28;20116;-72
2023/05/16 09:45:27;;;;;;;4.00;1.70;;;;;;;23.36;66.56;100304.09;5012186;28;20200;-71
2023/05/16 09:47:52;;;;;;;2.53;1.33;;;;;;;22.81;67.29;100134.94;5004038;28;20046;-72
2023/05/16 09:50:18;;;;;;;4.65;1.95;;;;;;;24.09;64.25;100230.34;5001932;28;20045;-73
2023/05/16 09:52:43;;;;;;;2.33;1.58;;;;;;;24.84;62.12;100274.13;5003265;28;20597;-70
2023/05/16 09:55:09;;;;;;;3.42;1.90;;;;;;;24.22;60.26;100199.19;5021854;28;20045;-73
2023/05/16 09:57:39;;;;;;;5.82;4.07;;;;;;;23.08;61.13;100124.53;5024850;28;20046;-73
2023/05/16 10:00:08;;;;;;;6.20;2.47;;;;;;;23.53;63.21;100179.06;5023891;28;20056;-74
2023/05/16 10:02:36;;;;;;;4.28;1.38;;;;;;;24.05;60.77;100261.84;5011965;28;20600;-72
2023/05/16 10:05:01;;;;;;;7.53;1.40;;;;;;;23.77;68.35;100163.44;5022743;28;20408;-72
2023/05/16 10:07:31;;;;;;;3.63;1.60;;;;;;;25.02;64.45;100266.75;5026952;28;20021;-74
2023/05/16 10:09:57;;;;;;;2.30;1.50;;;;;;;24.08;60.38;100161.63;5020275;28;20037;-75
2023/05/16 10:12:29;;;;;;;2.72;2.28;;;;;;;24.13;62.49;100164.88;5020699;28;20049;-75
2023/05/16 10:14:55;;;;;;;3.00;1.35;;;;;;;25.34;58.50;100258.53;5016423;28;20100;-75
2023/05/16 10:17:21;;;;;;;2.13;1.00;;;;;;;26.16;59.64;100260.31;5021958;28;20041;-73
2023/05/16 10:19:49;;;;;;;6.13;1.27;;;;;;;26.11;55.94;100225.66;5020172;28;20038;-71
2023/05/16 10:22:16;;;;;;;3.85;1.35;;;;;;;24.46;57.76;100064.50;5039273;28;20049;-71
2023/05/16 10:25:14;;;;;;;1.67;1.15;;;;;;;25.27;61.76;100234.75;5024855;28;20042;-73
2023/05/16 10:27:41;;;;;;;1.92;1.23;;;;;;;24.97;63.00;100213.34;5019414;28;20807;-74
2023/05/16 10:30:08;;;;;;;9.73;2.47;;;;;;;24.88;61.28;100230.03;5019348;28;20049;-74
2023/05/16 10:32:36;;;;;;;3.65;2.33;;;;;;;24.28;62.33;100182.72;5024311;28;20056;-71
2023/05/16 10:35:02;;;;;;;3.17;2.08;;;;;;;24.45;63.92;100187.06;5020437;28;20111;-73
2023/05/16 10:37:32;;;;;;;2.15;1.33;;;;;;;24.16;62.00;100137.88;4995445;28;20041;-74
2023/05/16 10:40:04;;;;;;;1.88;1.23;;;;;;;23.53;61.09;100104.06;5000419;28;20057;-71
2023/05/16 10:42:31;;;;;;;1.98;1.27;;;;;;;24.57;61.59;100209.63;5032008;28;20046;-73
2023/05/16 10:45:14;;;;;;;3.30;1.88;;;;;;;23.95;62.37;100134.66;5024617;28;20810;-73
2023/05/16 10:47:39;;;;;;;2.50;1.08;;;;;;;24.22;61.35;100099.97;5017306;28;20111;-72
2023/05/16 10:50:06;;;;;;;5.32;1.77;;;;;;;24.83;60.03;100192.75;5020767;28;20033;-72
2023/05/16 10:52:34;;;;;;;2.58;1.50;;;;;;;25.36;59.97;100205.56;5040119;28;20052;-73
2023/05/16 10:55:03;;;;;;;5.13;1.80;;;;;;;25.81;57.59;100233.06;5021386;28;20088;-72
2023/05/16 10:57:32;;;;;;;3.60;1.20;;;;;;;25.71;56.41;100168.31;5024184;28;20057;-72
2023/05/16 11:00:00;;;;;;;2.47;1.20;;;;;;;25.73;56.90;100206.69;5025371;28;20045;-73
2023/05/16 11:02:34;;;;;;;2.03;1.73;;;;;;;24.96;56.49;100112.31;5020942;28;20046;-72
2023/05/16 11:05:01;;;;;;;2.08;1.10;;;;;;;25.23;56.77;100088.16;5006755;28;20045;-72
2023/05/16 11:07:35;;;;;;;2.60;1.58;;;;;;;25.13;57.68;100196.28;5004024;28;20038;-72
2023/05/16 11:10:15;;;;;;;3.70;1.75;;;;;;;25.32;56.59;100150.31;4999670;28;20042;-74
2023/05/16 11:12:46;;;;;;;2.05;1.08;;;;;;;24.73;55.46;100105.72;5004831;28;20062;-73
2023/05/16 11:15:26;;;;;;;3.83;3.53;;;;;;;25.35;56.69;100207.38;4996570;28;20482;-72
2023/05/16 11:18:08;;;;;;;1.75;0.90;;;;;;;26.20;56.02;100186.53;5001682;28;20449;-73
2023/05/16 11:20:35;;;;;;;2.30;1.13;;;;;;;25.94;54.01;100117.50;4993249;28;20161;-73